sensor_id;sensor_type;location;lat;lon;timestamp;P1;durP1;ratioP1;P2;durP2;ratioP2
23826;SDS011;12094;50.822;4.376;2022-11-23T00:01:29;10.02;;;2.00;;
23826;SDS011;12094;50.822;4.376;2022-11-23T00:04:02;18.65;;;2.67;;
23826;SDS011;12094;50.822;4.376;2022-11-23T00:06:30;13.98;;;2.25;;
23826;SDS011;12094;50.822;4.376;2022-11-23T00:08:58;13.52;;;2.40;;
23826;SDS011;12094;50.822;4.376;2022-11-23T00:11:25;18.20;;;2.22;;
23826;SDS011;12094;50.822;4.376;2022-11-23T00:13:55;15.35;;;2.50;;
23826;SDS011;12094;50.822;4.376;2022-11-23T00:16:27;8.90;;;1.80;;
23826;SDS011;12094;50.822;4.376;2022-11-23T00:18:56;14.27;;;3.05;;
23826;SDS011;12094;50.822;4.376;2022-11-23T00:21:25;10.18;;;2.05;;
23826;SDS011;12094;50.822;4.376;2022-11-23T00:23:53;17.92;;;2.60;;
23826;SDS011;12094;50.822;4.376;2022-11-23T00:26:23;17.00;;;2.78;;
23826;SDS011;12094;50.822;4.376;2022-11-23T00:28:51;15.75;;;2.25;;
23826;SDS011;12094;50.822;4.376;2022-11-23T00:31:19;5.80;;;1.33;;
23826;SDS011;12094;50.822;4.376;2022-11-23T00:33:47;11.40;;;1.83;;
23826;SDS011;12094;50.822;4.376;2022-11-23T00:36:19;9.98;;;1.90;;
23826;SDS011;12094;50.822;4.376;2022-11-23T00:38:47;13.02;;;2.10;;
23826;SDS011;12094;50.822;4.376;2022-11-23T00:41:16;19.55;;;2.50;;
23826;SDS011;12094;50.822;4.376;2022-11-23T00:43:47;20.50;;;2.35;;
23826;SDS011;12094;50.822;4.376;2022-11-23T00:48:50;15.48;;;2.25;;
23826;SDS011;12094;50.822;4.376;2022-11-23T00:51:21;14.52;;;2.03;;
23826;SDS011;12094;50.822;4.376;2022-11-23T00:53:52;14.82;;;2.72;;
23826;SDS011;12094;50.822;4.376;2022-11-23T00:56:21;10.60;;;2.00;;
23826;SDS011;12094;50.822;4.376;2022-11-23T00:58:50;17.00;;;2.33;;
23826;SDS011;12094;50.822;4.376;2022-11-23T01:01:25;16.35;;;1.98;;
23826;SDS011;12094;50.822;4.376;2022-11-23T01:04:01;12.88;;;2.13;;
23826;SDS011;12094;50.822;4.376;2022-11-23T01:06:34;13.48;;;2.15;;
23826;SDS011;12094;50.822;4.376;2022-11-23T01:09:05;14.35;;;2.15;;
23826;SDS011;12094;50.822;4.376;2022-11-23T01:11:34;13.35;;;1.95;;
23826;SDS011;12094;50.822;4.376;2022-11-23T01:14:01;13.63;;;2.08;;
23826;SDS011;12094;50.822;4.376;2022-11-23T01:16:30;8.80;;;1.20;;
23826;SDS011;12094;50.822;4.376;2022-11-23T01:18:59;15.00;;;2.63;;
23826;SDS011;12094;50.822;4.376;2022-11-23T01:21:30;16.77;;;2.53;;
23826;SDS011;12094;50.822;4.376;2022-11-23T01:23:58;15.65;;;2.50;;
23826;SDS011;12094;50.822;4.376;2022-11-23T01:26:26;13.25;;;2.35;;
23826;SDS011;12094;50.822;4.376;2022-11-23T01:28:56;20.48;;;2.67;;
23826;SDS011;12094;50.822;4.376;2022-11-23T01:31:24;14.05;;;2.50;;
23826;SDS011;12094;50.822;4.376;2022-11-23T01:33:56;15.75;;;2.47;;
23826;SDS011;12094;50.822;4.376;2022-11-23T01:36:28;17.35;;;2.75;;
23826;SDS011;12094;50.822;4.376;2022-11-23T01:38:58;14.20;;;3.08;;
23826;SDS011;12094;50.822;4.376;2022-11-23T01:41:30;13.82;;;2.45;;
23826;SDS011;12094;50.822;4.376;2022-11-23T01:43:59;14.93;;;2.58;;
23826;SDS011;12094;50.822;4.376;2022-11-23T01:46:28;14.65;;;2.55;;
23826;SDS011;12094;50.822;4.376;2022-11-23T01:48:56;10.95;;;2.08;;
23826;SDS011;12094;50.822;4.376;2022-11-23T01:51:33;14.73;;;2.40;;
23826;SDS011;12094;50.822;4.376;2022-11-23T01:54:09;13.50;;;2.67;;
23826;SDS011;12094;50.822;4.376;2022-11-23T01:56:45;13.65;;;2.55;;
23826;SDS011;12094;50.822;4.376;2022-11-23T01:59:17;23.48;;;2.97;;
23826;SDS011;12094;50.822;4.376;2022-11-23T02:01:46;15.95;;;3.10;;
23826;SDS011;12094;50.822;4.376;2022-11-23T02:04:15;13.15;;;2.85;;
23826;SDS011;12094;50.822;4.376;2022-11-23T02:06:47;14.18;;;2.65;;
23826;SDS011;12094;50.822;4.376;2022-11-23T02:09:18;17.90;;;2.50;;
23826;SDS011;12094;50.822;4.376;2022-11-23T02:11:47;13.82;;;2.45;;
23826;SDS011;12094;50.822;4.376;2022-11-23T02:14:16;20.75;;;3.47;;
23826;SDS011;12094;50.822;4.376;2022-11-23T02:16:52;16.15;;;2.70;;
23826;SDS011;12094;50.822;4.376;2022-11-23T02:22:16;14.60;;;3.42;;
23826;SDS011;12094;50.822;4.376;2022-11-23T02:24:52;18.13;;;3.28;;
23826;SDS011;12094;50.822;4.376;2022-11-23T02:27:25;14.52;;;3.03;;
23826;SDS011;12094;50.822;4.376;2022-11-23T02:29:54;19.90;;;3.90;;
23826;SDS011;12094;50.822;4.376;2022-11-23T02:32:23;15.48;;;3.08;;
23826;SDS011;12094;50.822;4.376;2022-11-23T02:34:54;16.15;;;3.10;;
23826;SDS011;12094;50.822;4.376;2022-11-23T02:37:25;17.10;;;2.75;;
23826;SDS011;12094;50.822;4.376;2022-11-23T02:39:52;21.95;;;3.75;;
23826;SDS011;12094;50.822;4.376;2022-11-23T02:42:22;20.98;;;3.65;;
23826;SDS011;12094;50.822;4.376;2022-11-23T02:44:57;22.52;;;3.10;;
23826;SDS011;12094;50.822;4.376;2022-11-23T02:47:36;16.10;;;3.05;;
23826;SDS011;12094;50.822;4.376;2022-11-23T02:50:03;16.70;;;3.40;;
23826;SDS011;12094;50.822;4.376;2022-11-23T02:52:30;21.08;;;2.88;;
23826;SDS011;12094;50.822;4.376;2022-11-23T02:54:57;17.52;;;3.45;;
23826;SDS011;12094;50.822;4.376;2022-11-23T02:57:24;19.55;;;3.10;;
23826;SDS011;12094;50.822;4.376;2022-11-23T02:59:51;17.75;;;2.85;;
23826;SDS011;12094;50.822;4.376;2022-11-23T03:02:18;17.38;;;2.67;;
23826;SDS011;12094;50.822;4.376;2022-11-23T03:04:45;15.73;;;2.47;;
23826;SDS011;12094;50.822;4.376;2022-11-23T03:07:12;21.85;;;3.25;;
23826;SDS011;12094;50.822;4.376;2022-11-23T03:09:39;16.02;;;1.88;;
23826;SDS011;12094;50.822;4.376;2022-11-23T03:12:07;21.98;;;3.63;;
23826;SDS011;12094;50.822;4.376;2022-11-23T03:14:35;19.92;;;3.17;;
23826;SDS011;12094;50.822;4.376;2022-11-23T03:17:04;19.05;;;2.70;;
23826;SDS011;12094;50.822;4.376;2022-11-23T03:19:36;16.30;;;2.50;;
23826;SDS011;12094;50.822;4.376;2022-11-23T03:22:03;21.88;;;2.50;;
23826;SDS011;12094;50.822;4.376;2022-11-23T03:24:30;11.95;;;2.30;;
23826;SDS011;12094;50.822;4.376;2022-11-23T03:26:59;19.10;;;2.40;;
23826;SDS011;12094;50.822;4.376;2022-11-23T03:29:27;11.95;;;2.17;;
23826;SDS011;12094;50.822;4.376;2022-11-23T03:31:59;13.18;;;2.78;;
23826;SDS011;12094;50.822;4.376;2022-11-23T03:34:26;19.65;;;2.80;;
23826;SDS011;12094;50.822;4.376;2022-11-23T03:36:52;17.92;;;3.35;;
23826;SDS011;12094;50.822;4.376;2022-11-23T03:39:19;16.88;;;2.40;;
23826;SDS011;12094;50.822;4.376;2022-11-23T03:42:06;19.10;;;3.03;;
23826;SDS011;12094;50.822;4.376;2022-11-23T03:44:34;21.10;;;2.85;;
23826;SDS011;12094;50.822;4.376;2022-11-23T03:47:04;16.50;;;2.90;;
23826;SDS011;12094;50.822;4.376;2022-11-23T03:49:33;19.02;;;2.90;;
23826;SDS011;12094;50.822;4.376;2022-11-23T03:52:01;24.40;;;3.15;;
23826;SDS011;12094;50.822;4.376;2022-11-23T03:54:28;18.30;;;2.78;;
23826;SDS011;12094;50.822;4.376;2022-11-23T03:56:56;12.82;;;2.35;;
23826;SDS011;12094;50.822;4.376;2022-11-23T03:59:23;21.50;;;2.95;;
23826;SDS011;12094;50.822;4.376;2022-11-23T04:01:53;20.88;;;3.63;;
23826;SDS011;12094;50.822;4.376;2022-11-23T04:04:24;22.15;;;3.65;;
23826;SDS011;12094;50.822;4.376;2022-11-23T04:07:09;23.50;;;2.92;;
23826;SDS011;12094;50.822;4.376;2022-11-23T04:09:40;22.67;;;2.88;;
23826;SDS011;12094;50.822;4.376;2022-11-23T04:12:44;14.30;;;3.00;;
23826;SDS011;12094;50.822;4.376;2022-11-23T04:15:15;17.42;;;3.35;;
23826;SDS011;12094;50.822;4.376;2022-11-23T04:17:42;19.42;;;3.10;;
23826;SDS011;12094;50.822;4.376;2022-11-23T04:20:10;19.73;;;2.50;;
23826;SDS011;12094;50.822;4.376;2022-11-23T04:22:38;8.63;;;1.42;;
23826;SDS011;12094;50.822;4.376;2022-11-23T04:25:05;23.58;;;3.97;;
23826;SDS011;12094;50.822;4.376;2022-11-23T04:27:33;17.58;;;3.08;;
23826;SDS011;12094;50.822;4.376;2022-11-23T04:30:01;18.45;;;2.97;;
23826;SDS011;12094;50.822;4.376;2022-11-23T04:32:30;21.75;;;3.00;;
23826;SDS011;12094;50.822;4.376;2022-11-23T04:34:58;17.83;;;2.80;;
23826;SDS011;12094;50.822;4.376;2022-11-23T04:37:25;15.88;;;2.70;;
23826;SDS011;12094;50.822;4.376;2022-11-23T04:39:52;18.67;;;2.70;;
23826;SDS011;12094;50.822;4.376;2022-11-23T04:42:34;18.85;;;3.53;;
23826;SDS011;12094;50.822;4.376;2022-11-23T04:45:01;19.65;;;3.42;;
23826;SDS011;12094;50.822;4.376;2022-11-23T04:47:29;15.50;;;2.58;;
23826;SDS011;12094;50.822;4.376;2022-11-23T04:50:00;23.08;;;3.58;;
23826;SDS011;12094;50.822;4.376;2022-11-23T04:52:28;16.90;;;2.38;;
23826;SDS011;12094;50.822;4.376;2022-11-23T04:55:00;9.80;;;2.60;;
23826;SDS011;12094;50.822;4.376;2022-11-23T04:57:32;19.88;;;3.00;;
23826;SDS011;12094;50.822;4.376;2022-11-23T04:59:59;19.60;;;3.03;;
23826;SDS011;12094;50.822;4.376;2022-11-23T05:02:29;31.83;;;4.10;;
23826;SDS011;12094;50.822;4.376;2022-11-23T05:05:12;21.60;;;2.88;;
23826;SDS011;12094;50.822;4.376;2022-11-23T05:07:39;21.52;;;3.08;;
23826;SDS011;12094;50.822;4.376;2022-11-23T05:10:08;30.60;;;3.10;;
23826;SDS011;12094;50.822;4.376;2022-11-23T05:12:40;19.27;;;3.03;;
23826;SDS011;12094;50.822;4.376;2022-11-23T05:15:09;26.25;;;3.20;;
23826;SDS011;12094;50.822;4.376;2022-11-23T05:17:37;17.17;;;2.55;;
23826;SDS011;12094;50.822;4.376;2022-11-23T05:20:11;18.95;;;2.25;;
23826;SDS011;12094;50.822;4.376;2022-11-23T05:22:44;15.20;;;2.22;;
23826;SDS011;12094;50.822;4.376;2022-11-23T05:25:14;11.00;;;2.15;;
23826;SDS011;12094;50.822;4.376;2022-11-23T05:27:43;13.20;;;2.38;;
23826;SDS011;12094;50.822;4.376;2022-11-23T05:30:10;19.10;;;2.72;;
23826;SDS011;12094;50.822;4.376;2022-11-23T05:32:41;19.20;;;2.47;;
23826;SDS011;12094;50.822;4.376;2022-11-23T05:35:08;17.85;;;2.85;;
23826;SDS011;12094;50.822;4.376;2022-11-23T05:37:37;23.90;;;3.20;;
23826;SDS011;12094;50.822;4.376;2022-11-23T05:40:07;22.45;;;2.63;;
23826;SDS011;12094;50.822;4.376;2022-11-23T05:42:36;11.55;;;1.77;;
23826;SDS011;12094;50.822;4.376;2022-11-23T05:45:11;19.38;;;2.60;;
23826;SDS011;12094;50.822;4.376;2022-11-23T05:47:42;16.58;;;2.53;;
23826;SDS011;12094;50.822;4.376;2022-11-23T05:50:20;22.92;;;2.72;;
23826;SDS011;12094;50.822;4.376;2022-11-23T05:53:09;20.85;;;2.72;;
23826;SDS011;12094;50.822;4.376;2022-11-23T05:55:38;25.40;;;2.97;;
23826;SDS011;12094;50.822;4.376;2022-11-23T05:58:06;21.50;;;2.63;;
23826;SDS011;12094;50.822;4.376;2022-11-23T06:00:35;21.95;;;3.28;;
23826;SDS011;12094;50.822;4.376;2022-11-23T06:03:05;24.98;;;3.47;;
23826;SDS011;12094;50.822;4.376;2022-11-23T06:05:35;16.23;;;2.28;;
23826;SDS011;12094;50.822;4.376;2022-11-23T06:08:02;21.63;;;2.60;;
23826;SDS011;12094;50.822;4.376;2022-11-23T06:10:31;11.63;;;2.13;;
23826;SDS011;12094;50.822;4.376;2022-11-23T06:13:02;22.45;;;2.90;;
23826;SDS011;12094;50.822;4.376;2022-11-23T06:17:58;14.75;;;2.05;;
23826;SDS011;12094;50.822;4.376;2022-11-23T06:20:34;17.25;;;2.63;;
23826;SDS011;12094;50.822;4.376;2022-11-23T06:23:01;16.85;;;2.78;;
23826;SDS011;12094;50.822;4.376;2022-11-23T06:25:28;16.55;;;2.75;;
23826;SDS011;12094;50.822;4.376;2022-11-23T06:28:14;23.27;;;3.80;;
23826;SDS011;12094;50.822;4.376;2022-11-23T06:30:46;21.52;;;2.63;;
23826;SDS011;12094;50.822;4.376;2022-11-23T06:33:14;13.48;;;2.40;;
23826;SDS011;12094;50.822;4.376;2022-11-23T06:35:51;13.18;;;2.10;;
23826;SDS011;12094;50.822;4.376;2022-11-23T06:38:34;23.02;;;3.53;;
23826;SDS011;12094;50.822;4.376;2022-11-23T06:41:14;26.20;;;3.58;;
23826;SDS011;12094;50.822;4.376;2022-11-23T06:43:41;21.40;;;2.40;;
23826;SDS011;12094;50.822;4.376;2022-11-23T06:46:10;15.20;;;2.78;;
23826;SDS011;12094;50.822;4.376;2022-11-23T06:48:42;24.98;;;2.95;;
23826;SDS011;12094;50.822;4.376;2022-11-23T06:51:13;21.23;;;2.55;;
23826;SDS011;12094;50.822;4.376;2022-11-23T06:53:41;18.60;;;2.10;;
23826;SDS011;12094;50.822;4.376;2022-11-23T06:56:11;23.33;;;3.30;;
23826;SDS011;12094;50.822;4.376;2022-11-23T06:58:39;22.25;;;3.42;;
23826;SDS011;12094;50.822;4.376;2022-11-23T07:01:11;21.85;;;3.00;;
23826;SDS011;12094;50.822;4.376;2022-11-23T07:03:45;19.05;;;2.92;;
23826;SDS011;12094;50.822;4.376;2022-11-23T07:06:29;30.30;;;3.30;;
23826;SDS011;12094;50.822;4.376;2022-11-23T07:09:03;15.45;;;2.80;;
23826;SDS011;12094;50.822;4.376;2022-11-23T07:11:51;19.13;;;3.28;;
23826;SDS011;12094;50.822;4.376;2022-11-23T07:17:13;19.08;;;3.17;;
23826;SDS011;12094;50.822;4.376;2022-11-23T07:19:48;14.82;;;2.90;;
23826;SDS011;12094;50.822;4.376;2022-11-23T07:22:15;13.95;;;2.78;;
23826;SDS011;12094;50.822;4.376;2022-11-23T07:24:43;18.27;;;2.78;;
23826;SDS011;12094;50.822;4.376;2022-11-23T07:27:15;14.48;;;2.90;;
23826;SDS011;12094;50.822;4.376;2022-11-23T07:29:43;22.20;;;3.67;;
23826;SDS011;12094;50.822;4.376;2022-11-23T07:32:11;17.85;;;3.15;;
23826;SDS011;12094;50.822;4.376;2022-11-23T07:34:40;23.55;;;3.72;;
23826;SDS011;12094;50.822;4.376;2022-11-23T07:37:09;24.75;;;4.10;;
23826;SDS011;12094;50.822;4.376;2022-11-23T07:39:38;24.45;;;3.53;;
23826;SDS011;12094;50.822;4.376;2022-11-23T07:42:24;20.17;;;4.97;;
23826;SDS011;12094;50.822;4.376;2022-11-23T07:45:09;29.67;;;4.22;;
23826;SDS011;12094;50.822;4.376;2022-11-23T07:47:44;23.23;;;3.45;;
23826;SDS011;12094;50.822;4.376;2022-11-23T07:50:14;19.38;;;4.38;;
23826;SDS011;12094;50.822;4.376;2022-11-23T07:52:41;20.70;;;3.38;;
23826;SDS011;12094;50.822;4.376;2022-11-23T07:55:11;18.83;;;3.65;;
23826;SDS011;12094;50.822;4.376;2022-11-23T07:57:38;10.00;;;3.10;;
23826;SDS011;12094;50.822;4.376;2022-11-23T08:00:05;17.20;;;3.05;;
23826;SDS011;12094;50.822;4.376;2022-11-23T08:02:38;22.10;;;2.97;;
23826;SDS011;12094;50.822;4.376;2022-11-23T08:05:29;20.50;;;3.78;;
23826;SDS011;12094;50.822;4.376;2022-11-23T08:07:58;16.17;;;3.23;;
23826;SDS011;12094;50.822;4.376;2022-11-23T08:10:27;27.15;;;3.95;;
23826;SDS011;12094;50.822;4.376;2022-11-23T08:12:56;20.70;;;3.15;;
23826;SDS011;12094;50.822;4.376;2022-11-23T08:15:24;23.08;;;2.85;;
23826;SDS011;12094;50.822;4.376;2022-11-23T08:17:54;12.95;;;2.45;;
23826;SDS011;12094;50.822;4.376;2022-11-23T08:20:24;16.38;;;3.90;;
23826;SDS011;12094;50.822;4.376;2022-11-23T08:22:51;15.82;;;3.08;;
23826;SDS011;12094;50.822;4.376;2022-11-23T08:25:22;14.30;;;3.20;;
23826;SDS011;12094;50.822;4.376;2022-11-23T08:27:59;20.85;;;3.85;;
23826;SDS011;12094;50.822;4.376;2022-11-23T08:30:30;21.83;;;3.80;;
23826;SDS011;12094;50.822;4.376;2022-11-23T08:33:05;22.38;;;3.83;;
23826;SDS011;12094;50.822;4.376;2022-11-23T08:35:36;11.45;;;2.75;;
23826;SDS011;12094;50.822;4.376;2022-11-23T08:38:08;11.45;;;2.33;;
23826;SDS011;12094;50.822;4.376;2022-11-23T08:40:36;19.70;;;3.17;;
23826;SDS011;12094;50.822;4.376;2022-11-23T08:43:03;18.00;;;3.30;;
23826;SDS011;12094;50.822;4.376;2022-11-23T08:45:30;14.70;;;3.17;;
23826;SDS011;12094;50.822;4.376;2022-11-23T08:47:58;16.50;;;3.50;;
23826;SDS011;12094;50.822;4.376;2022-11-23T08:50:27;10.98;;;2.75;;
23826;SDS011;12094;50.822;4.376;2022-11-23T08:52:55;12.20;;;3.20;;
23826;SDS011;12094;50.822;4.376;2022-11-23T08:55:23;10.43;;;2.60;;
23826;SDS011;12094;50.822;4.376;2022-11-23T08:57:55;12.77;;;3.00;;
23826;SDS011;12094;50.822;4.376;2022-11-23T09:02:51;13.27;;;3.28;;
23826;SDS011;12094;50.822;4.376;2022-11-23T09:05:19;17.77;;;2.70;;
23826;SDS011;12094;50.822;4.376;2022-11-23T09:07:45;12.07;;;3.15;;
23826;SDS011;12094;50.822;4.376;2022-11-23T09:10:13;12.75;;;3.47;;
23826;SDS011;12094;50.822;4.376;2022-11-23T09:12:44;15.68;;;3.33;;
23826;SDS011;12094;50.822;4.376;2022-11-23T09:17:44;11.52;;;2.78;;
23826;SDS011;12094;50.822;4.376;2022-11-23T09:20:11;12.73;;;3.10;;
23826;SDS011;12094;50.822;4.376;2022-11-23T09:22:38;8.75;;;2.65;;
23826;SDS011;12094;50.822;4.376;2022-11-23T09:25:06;11.38;;;3.20;;
23826;SDS011;12094;50.822;4.376;2022-11-23T09:27:34;9.35;;;1.98;;
23826;SDS011;12094;50.822;4.376;2022-11-23T09:30:01;11.20;;;2.70;;
23826;SDS011;12094;50.822;4.376;2022-11-23T09:32:30;17.92;;;3.03;;
23826;SDS011;12094;50.822;4.376;2022-11-23T09:34:58;9.52;;;2.63;;
23826;SDS011;12094;50.822;4.376;2022-11-23T09:37:25;9.68;;;2.90;;
23826;SDS011;12094;50.822;4.376;2022-11-23T09:39:51;10.52;;;3.35;;
23826;SDS011;12094;50.822;4.376;2022-11-23T09:45:21;11.30;;;3.13;;
23826;SDS011;12094;50.822;4.376;2022-11-23T09:50:48;22.10;;;3.10;;
23826;SDS011;12094;50.822;4.376;2022-11-23T09:53:23;9.02;;;2.85;;
23826;SDS011;12094;50.822;4.376;2022-11-23T09:56:22;13.57;;;3.33;;
23826;SDS011;12094;50.822;4.376;2022-11-23T09:59:01;13.18;;;2.33;;
23826;SDS011;12094;50.822;4.376;2022-11-23T10:01:37;13.25;;;2.55;;
23826;SDS011;12094;50.822;4.376;2022-11-23T10:04:05;10.68;;;2.60;;
23826;SDS011;12094;50.822;4.376;2022-11-23T10:06:56;13.73;;;2.92;;
23826;SDS011;12094;50.822;4.376;2022-11-23T10:12:13;15.90;;;3.10;;
23826;SDS011;12094;50.822;4.376;2022-11-23T10:14:58;15.60;;;2.58;;
23826;SDS011;12094;50.822;4.376;2022-11-23T10:25:17;14.13;;;2.58;;
23826;SDS011;12094;50.822;4.376;2022-11-23T10:27:46;6.55;;;1.95;;
23826;SDS011;12094;50.822;4.376;2022-11-23T10:30:16;10.40;;;2.13;;
23826;SDS011;12094;50.822;4.376;2022-11-23T10:33:01;6.68;;;2.10;;
23826;SDS011;12094;50.822;4.376;2022-11-23T10:35:43;6.53;;;1.90;;
23826;SDS011;12094;50.822;4.376;2022-11-23T10:38:14;8.15;;;2.25;;
23826;SDS011;12094;50.822;4.376;2022-11-23T10:41:08;5.25;;;1.60;;
23826;SDS011;12094;50.822;4.376;2022-11-23T10:46:37;10.63;;;2.08;;
23826;SDS011;12094;50.822;4.376;2022-11-23T10:49:23;7.93;;;2.15;;
23826;SDS011;12094;50.822;4.376;2022-11-23T10:51:58;13.07;;;2.60;;
23826;SDS011;12094;50.822;4.376;2022-11-23T10:55:00;13.63;;;2.03;;
23826;SDS011;12094;50.822;4.376;2022-11-23T10:57:29;8.85;;;1.85;;
23826;SDS011;12094;50.822;4.376;2022-11-23T11:00:04;10.15;;;2.83;;
23826;SDS011;12094;50.822;4.376;2022-11-23T11:02:44;14.75;;;2.47;;
23826;SDS011;12094;50.822;4.376;2022-11-23T11:08:31;10.35;;;1.80;;
23826;SDS011;12094;50.822;4.376;2022-11-23T11:11:05;6.88;;;1.90;;
23826;SDS011;12094;50.822;4.376;2022-11-23T11:18:53;11.02;;;2.17;;
23826;SDS011;12094;50.822;4.376;2022-11-23T11:21:21;9.10;;;2.10;;
23826;SDS011;12094;50.822;4.376;2022-11-23T11:24:01;8.70;;;2.28;;
23826;SDS011;12094;50.822;4.376;2022-11-23T11:26:32;11.45;;;2.42;;
23826;SDS011;12094;50.822;4.376;2022-11-23T11:29:02;13.63;;;2.15;;
23826;SDS011;12094;50.822;4.376;2022-11-23T11:31:43;10.18;;;1.48;;
23826;SDS011;12094;50.822;4.376;2022-11-23T11:39:48;9.93;;;1.88;;
23826;SDS011;12094;50.822;4.376;2022-11-23T11:42:28;7.97;;;1.17;;
23826;SDS011;12094;50.822;4.376;2022-11-23T11:45:01;10.30;;;1.55;;
23826;SDS011;12094;50.822;4.376;2022-11-23T11:47:36;5.80;;;1.83;;
23826;SDS011;12094;50.822;4.376;2022-11-23T11:53:00;10.85;;;1.73;;
23826;SDS011;12094;50.822;4.376;2022-11-23T11:55:53;8.65;;;1.60;;
23826;SDS011;12094;50.822;4.376;2022-11-23T11:58:30;11.85;;;1.55;;
23826;SDS011;12094;50.822;4.376;2022-11-23T12:01:06;10.20;;;1.40;;
23826;SDS011;12094;50.822;4.376;2022-11-23T12:03:51;8.07;;;1.45;;
23826;SDS011;12094;50.822;4.376;2022-11-23T12:06:37;5.85;;;1.38;;
23826;SDS011;12094;50.822;4.376;2022-11-23T12:09:16;4.68;;;1.58;;
23826;SDS011;12094;50.822;4.376;2022-11-23T12:11:47;10.07;;;1.50;;
23826;SDS011;12094;50.822;4.376;2022-11-23T12:14:15;8.38;;;1.38;;
23826;SDS011;12094;50.822;4.376;2022-11-23T12:23:15;5.32;;;1.10;;
23826;SDS011;12094;50.822;4.376;2022-11-23T12:25:55;5.45;;;1.15;;
23826;SDS011;12094;50.822;4.376;2022-11-23T12:31:48;6.25;;;1.17;;
23826;SDS011;12094;50.822;4.376;2022-11-23T12:40:23;6.25;;;1.40;;
23826;SDS011;12094;50.822;4.376;2022-11-23T12:46:19;4.38;;;1.45;;
23826;SDS011;12094;50.822;4.376;2022-11-23T12:49:18;5.63;;;1.63;;
23826;SDS011;12094;50.822;4.376;2022-11-23T12:55:03;6.25;;;1.60;;
23826;SDS011;12094;50.822;4.376;2022-11-23T12:57:59;12.18;;;2.15;;
23826;SDS011;12094;50.822;4.376;2022-11-23T13:10:19;6.45;;;1.50;;
23826;SDS011;12094;50.822;4.376;2022-11-23T13:21:43;4.88;;;1.10;;
23826;SDS011;12094;50.822;4.376;2022-11-23T13:24:22;5.85;;;1.35;;
23826;SDS011;12094;50.822;4.376;2022-11-23T13:29:58;6.13;;;2.00;;
23826;SDS011;12094;50.822;4.376;2022-11-23T13:32:43;5.15;;;1.70;;
23826;SDS011;12094;50.822;4.376;2022-11-23T13:40:22;3.42;;;1.30;;
23826;SDS011;12094;50.822;4.376;2022-11-23T13:42:55;7.22;;;1.80;;
23826;SDS011;12094;50.822;4.376;2022-11-23T13:45:30;4.68;;;1.50;;
23826;SDS011;12094;50.822;4.376;2022-11-23T13:53:34;4.10;;;1.45;;
23826;SDS011;12094;50.822;4.376;2022-11-23T13:56:20;3.80;;;1.45;;
23826;SDS011;12094;50.822;4.376;2022-11-23T13:58:57;7.65;;;1.90;;
23826;SDS011;12094;50.822;4.376;2022-11-23T14:04:33;3.22;;;1.17;;
23826;SDS011;12094;50.822;4.376;2022-11-23T14:09:35;4.38;;;1.60;;
23826;SDS011;12094;50.822;4.376;2022-11-23T14:14:57;3.83;;;1.60;;
23826;SDS011;12094;50.822;4.376;2022-11-23T14:17:35;4.25;;;1.85;;
23826;SDS011;12094;50.822;4.376;2022-11-23T14:35:31;4.65;;;1.58;;
23826;SDS011;12094;50.822;4.376;2022-11-23T14:41:21;4.43;;;2.08;;
23826;SDS011;12094;50.822;4.376;2022-11-23T14:43:50;3.10;;;1.45;;
23826;SDS011;12094;50.822;4.376;2022-11-23T14:46:19;5.63;;;1.90;;
23826;SDS011;12094;50.822;4.376;2022-11-23T14:48:48;5.25;;;1.73;;
23826;SDS011;12094;50.822;4.376;2022-11-23T14:51:16;4.00;;;1.90;;
23826;SDS011;12094;50.822;4.376;2022-11-23T14:53:46;3.25;;;1.52;;
23826;SDS011;12094;50.822;4.376;2022-11-23T14:57:01;6.15;;;1.83;;
23826;SDS011;12094;50.822;4.376;2022-11-23T14:59:08;7.72;;;2.03;;
23826;SDS011;12094;50.822;4.376;2022-11-23T15:01:49;4.30;;;1.92;;
23826;SDS011;12094;50.822;4.376;2022-11-23T15:04:24;4.38;;;1.60;;
23826;SDS011;12094;50.822;4.376;2022-11-23T15:07:10;5.53;;;1.60;;
23826;SDS011;12094;50.822;4.376;2022-11-23T15:10:01;4.30;;;1.75;;
23826;SDS011;12094;50.822;4.376;2022-11-23T15:12:51;3.80;;;1.77;;
23826;SDS011;12094;50.822;4.376;2022-11-23T15:15:22;7.75;;;1.80;;
23826;SDS011;12094;50.822;4.376;2022-11-23T15:17:53;4.93;;;1.80;;
23826;SDS011;12094;50.822;4.376;2022-11-23T15:20:23;8.65;;;1.80;;
23826;SDS011;12094;50.822;4.376;2022-11-23T15:25:26;9.10;;;1.95;;
23826;SDS011;12094;50.822;4.376;2022-11-23T15:27:55;5.72;;;1.80;;
23826;SDS011;12094;50.822;4.376;2022-11-23T15:30:26;4.85;;;1.70;;
23826;SDS011;12094;50.822;4.376;2022-11-23T15:35:30;8.23;;;1.90;;
23826;SDS011;12094;50.822;4.376;2022-11-23T15:38:00;4.93;;;2.05;;
23826;SDS011;12094;50.822;4.376;2022-11-23T15:40:31;7.30;;;2.35;;
23826;SDS011;12094;50.822;4.376;2022-11-23T15:43:01;7.03;;;1.92;;
23826;SDS011;12094;50.822;4.376;2022-11-23T15:48:04;5.68;;;2.55;;
23826;SDS011;12094;50.822;4.376;2022-11-23T15:50:45;7.85;;;2.30;;
23826;SDS011;12094;50.822;4.376;2022-11-23T15:53:23;6.03;;;1.92;;
23826;SDS011;12094;50.822;4.376;2022-11-23T15:55:53;8.32;;;2.15;;
23826;SDS011;12094;50.822;4.376;2022-11-23T15:58:27;6.32;;;2.38;;
23826;SDS011;12094;50.822;4.376;2022-11-23T16:00:59;11.57;;;2.25;;
23826;SDS011;12094;50.822;4.376;2022-11-23T16:03:51;5.55;;;2.50;;
23826;SDS011;12094;50.822;4.376;2022-11-23T16:06:38;6.40;;;2.30;;
23826;SDS011;12094;50.822;4.376;2022-11-23T16:12:24;13.50;;;3.95;;
23826;SDS011;12094;50.822;4.376;2022-11-23T16:14:54;9.30;;;2.88;;
23826;SDS011;12094;50.822;4.376;2022-11-23T16:17:47;12.60;;;3.17;;
23826;SDS011;12094;50.822;4.376;2022-11-23T16:20:15;5.45;;;3.00;;
23826;SDS011;12094;50.822;4.376;2022-11-23T16:22:46;7.53;;;3.33;;
23826;SDS011;12094;50.822;4.376;2022-11-23T16:25:26;9.30;;;3.22;;
23826;SDS011;12094;50.822;4.376;2022-11-23T16:28:01;12.32;;;3.33;;
23826;SDS011;12094;50.822;4.376;2022-11-23T16:30:49;8.57;;;3.10;;
23826;SDS011;12094;50.822;4.376;2022-11-23T16:33:17;9.55;;;3.47;;
23826;SDS011;12094;50.822;4.376;2022-11-23T16:35:46;17.23;;;3.72;;
23826;SDS011;12094;50.822;4.376;2022-11-23T16:38:13;11.85;;;3.05;;
23826;SDS011;12094;50.822;4.376;2022-11-23T16:40:41;13.63;;;4.00;;
23826;SDS011;12094;50.822;4.376;2022-11-23T16:43:09;12.93;;;4.40;;
23826;SDS011;12094;50.822;4.376;2022-11-23T16:45:38;16.95;;;3.95;;
23826;SDS011;12094;50.822;4.376;2022-11-23T16:50:55;11.48;;;3.88;;
23826;SDS011;12094;50.822;4.376;2022-11-23T16:53:22;13.57;;;4.13;;
23826;SDS011;12094;50.822;4.376;2022-11-23T16:55:55;10.63;;;3.90;;
23826;SDS011;12094;50.822;4.376;2022-11-23T16:58:33;14.55;;;4.60;;
23826;SDS011;12094;50.822;4.376;2022-11-23T17:01:01;15.80;;;4.90;;
23826;SDS011;12094;50.822;4.376;2022-11-23T17:03:29;15.23;;;4.85;;
23826;SDS011;12094;50.822;4.376;2022-11-23T17:05:58;16.98;;;4.95;;
23826;SDS011;12094;50.822;4.376;2022-11-23T17:08:28;16.30;;;4.47;;
23826;SDS011;12094;50.822;4.376;2022-11-23T17:10:56;18.13;;;5.38;;
23826;SDS011;12094;50.822;4.376;2022-11-23T17:13:24;14.07;;;4.90;;
23826;SDS011;12094;50.822;4.376;2022-11-23T17:15:55;14.88;;;4.85;;
23826;SDS011;12094;50.822;4.376;2022-11-23T17:18:23;15.52;;;3.97;;
23826;SDS011;12094;50.822;4.376;2022-11-23T17:20:52;17.65;;;5.22;;
23826;SDS011;12094;50.822;4.376;2022-11-23T17:23:25;21.63;;;5.65;;
23826;SDS011;12094;50.822;4.376;2022-11-23T17:25:55;17.60;;;4.28;;
23826;SDS011;12094;50.822;4.376;2022-11-23T17:28:22;17.23;;;4.25;;
23826;SDS011;12094;50.822;4.376;2022-11-23T17:30:52;21.38;;;4.47;;
23826;SDS011;12094;50.822;4.376;2022-11-23T17:33:19;24.33;;;5.68;;
23826;SDS011;12094;50.822;4.376;2022-11-23T17:35:49;26.33;;;5.80;;